Time;durP1;ratioP1;P1;durP2;ratioP2;P2;SDS_P1;SDS_P2;PMS_P1;PMS_P2;Temp;Humidity;BMP_temperature;BMP_pressure;BME280_temperature;BME280_humidity;BME280_pressure;Samples;Min_cycle;Max_cycle;Signal;HPM_P1;HPM_P2
2022/06/30 00:00:57;;;;;;;10.02;8.18;;;20.50;94.40;;;;;;5030873;28;20041;-70
2022/06/30 00:03:23;;;;;;;9.15;6.55;;;20.40;94.60;;;;;;5030770;28;20605;-70
2022/06/30 00:05:48;;;;;;;8.15;7.20;;;20.60;94.60;;;;;;5031347;28;20033;-70
2022/06/30 00:08:14;;;;;;;6.72;6.20;;;20.40;94.70;;;;;;5031739;28;20103;-71
2022/06/30 00:10:39;;;;;;;7.28;6.57;;;20.40;94.80;;;;;;5031457;28;20053;-70
2022/06/30 00:13:05;;;;;;;6.97;6.18;;;20.30;94.80;;;;;;5031130;28;20029;-71
2022/06/30 00:15:31;;;;;;;8.23;7.43;;;20.30;95.00;;;;;;5031276;28;20087;-70
2022/06/30 00:17:57;;;;;;;8.25;7.50;;;20.30;95.00;;;;;;5030904;28;20037;-70
2022/06/30 00:20:22;;;;;;;8.65;7.60;;;20.30;95.20;;;;;;5030968;28;20041;-70
2022/06/30 00:22:48;;;;;;;8.20;7.38;;;20.40;95.20;;;;;;5031228;28;20490;-70
2022/06/30 00:25:13;;;;;;;8.23;7.43;;;20.30;95.20;;;;;;5031014;28;20398;-70
2022/06/30 00:27:40;;;;;;;9.30;8.43;;;20.20;95.30;;;;;;5030993;28;20049;-70
2022/06/30 00:30:06;;;;;;;8.57;7.20;;;20.20;95.90;;;;;;5030691;28;20513;-70
2022/06/30 00:32:32;;;;;;;10.85;8.52;;;20.30;95.20;;;;;;5030790;28;20497;-70
2022/06/30 00:34:58;;;;;;;8.55;7.38;;;20.20;95.50;;;;;;5030862;28;20064;-70
2022/06/30 00:37:23;;;;;;;10.80;9.85;;;20.20;95.60;;;;;;5031049;28;20049;-70
2022/06/30 00:39:49;;;;;;;11.45;9.05;;;20.20;95.80;;;;;;5030944;28;20088;-70
2022/06/30 00:42:15;;;;;;;9.60;8.70;;;20.20;95.80;;;;;;5030708;28;20470;-70
2022/06/30 00:44:40;;;;;;;10.35;9.35;;;20.20;95.70;;;;;;5030521;28;20493;-70
2022/06/30 00:47:06;;;;;;;10.45;8.55;;;20.30;95.90;;;;;;5030163;28;20037;-70
2022/06/30 00:49:32;;;;;;;9.90;8.88;;;20.20;95.90;;;;;;5030706;28;20441;-70
2022/06/30 00:52:01;;;;;;;9.80;8.32;;;20.20;96.00;;;;;;5030540;28;20112;-71
2022/06/30 00:54:27;;;;;;;10.35;9.38;;;20.20;96.30;;;;;;5030659;28;20060;-70
2022/06/30 00:56:55;;;;;;;9.98;9.18;;;20.20;96.20;;;;;;5030888;28;20529;-70
2022/06/30 00:59:22;;;;;;;11.57;10.48;;;20.20;96.50;;;;;;5030317;28;20482;-70
2022/06/30 01:01:49;;;;;;;10.82;9.10;;;20.10;96.40;;;;;;5029754;28;20064;-70
2022/06/30 01:04:16;;;;;;;11.23;10.02;;;21.70;97.00;;;;;;5030243;28;20029;-70
2022/06/30 01:06:44;;;;;;;11.07;9.63;;;20.10;96.60;;;;;;5030340;28;20025;-70
2022/06/30 01:09:10;;;;;;;11.00;10.02;;;20.00;96.80;;;;;;5030194;28;20030;-70
2022/06/30 01:14:20;;;;;;;11.57;10.48;;;20.00;96.30;;;;;;5030127;28;20036;-70
2022/06/30 01:16:46;;;;;;;11.40;10.40;;;20.00;96.80;;;;;;5029769;28;20026;-70
2022/06/30 01:19:14;;;;;;;13.52;11.07;;;19.90;96.90;;;;;;5030117;28;20033;-70
2022/06/30 01:21:39;;;;;;;10.82;9.93;;;19.90;97.30;;;;;;5030226;28;20045;-70
2022/06/30 01:24:05;;;;;;;13.88;11.38;;;20.00;97.10;;;;;;5029861;28;20091;-70
2022/06/30 01:26:31;;;;;;;11.85;10.85;;;20.40;97.40;;;;;;5030228;28;20068;-70
2022/06/30 01:28:57;;;;;;;11.13;10.05;;;19.80;97.30;;;;;;5029937;28;20061;-70
2022/06/30 01:31:23;;;;;;;11.88;10.77;;;19.90;97.50;;;;;;5029411;28;20482;-70
2022/06/30 01:33:49;;;;;;;12.80;11.45;;;20.90;97.80;;;;;;5030036;28;20072;-70
2022/06/30 01:36:15;;;;;;;12.57;11.38;;;20.30;97.90;;;;;;5030215;28;20098;-70
2022/06/30 01:38:41;;;;;;;13.15;11.80;;;19.60;98.10;;;;;;5029931;28;20534;-70
2022/06/30 01:41:07;;;;;;;12.45;11.32;;;19.60;98.10;;;;;;5029639;28;20041;-70
2022/06/30 01:43:33;;;;;;;13.07;11.98;;;19.60;98.10;;;;;;5030254;28;20120;-70
2022/06/30 01:45:59;;;;;;;12.98;11.77;;;19.50;98.30;;;;;;5029176;28;20034;-70
2022/06/30 01:48:24;;;;;;;13.73;12.45;;;19.40;98.30;;;;;;5029989;28;20043;-70
2022/06/30 01:50:50;;;;;;;13.18;11.45;;;19.40;98.30;;;;;;5028506;28;20030;-70
2022/06/30 01:53:15;;;;;;;14.10;12.50;;;19.40;98.50;;;;;;5029596;28;20386;-70
2022/06/30 01:55:41;;;;;;;14.02;12.73;;;19.20;98.60;;;;;;5029709;28;20140;-70
2022/06/30 01:58:07;;;;;;;14.07;12.85;;;19.20;98.70;;;;;;5029446;28;20484;-70
2022/06/30 02:00:32;;;;;;;13.90;12.73;;;19.30;98.80;;;;;;5029390;28;20041;-70
2022/06/30 02:02:58;;;;;;;13.50;12.35;;;19.30;98.90;;;;;;5029674;28;20491;-70
2022/06/30 02:05:25;;;;;;;12.38;11.27;;;19.40;98.90;;;;;;5031718;28;20033;-70
2022/06/30 02:07:51;;;;;;;14.10;12.77;;;19.40;98.90;;;;;;5033479;28;20087;-70
2022/06/30 02:10:19;;;;;;;13.20;11.90;;;19.40;99.00;;;;;;5033402;28;20450;-70
2022/06/30 02:12:46;;;;;;;13.00;11.80;;;20.30;99.30;;;;;;5033418;28;20071;-70
2022/06/30 02:15:36;;;;;;;15.95;14.35;;;19.40;99.00;;;;;;5033046;28;20040;-70
2022/06/30 02:18:07;;;;;;;13.95;12.60;;;19.50;98.90;;;;;;5033248;28;20032;-70
2022/06/30 02:20:33;;;;;;;14.30;13.07;;;19.40;98.60;;;;;;5033592;28;20484;-70
2022/06/30 02:23:01;;;;;;;13.02;11.80;;;19.40;99.20;;;;;;5033012;28;20561;-70
2022/06/30 02:25:28;;;;;;;14.00;12.60;;;19.40;99.40;;;;;;5033856;28;20014;-70
2022/06/30 02:27:54;;;;;;;13.80;12.57;;;19.40;99.40;;;;;;5032832;28;20037;-70
2022/06/30 02:30:20;;;;;;;14.43;13.10;;;;;;;;;;5033144;28;20074;-70
2022/06/30 02:32:46;;;;;;;14.25;12.85;;;19.40;98.40;;;;;;5033859;28;20029;-70
2022/06/30 02:35:12;;;;;;;13.25;12.02;;;19.30;99.60;;;;;;5033308;28;20025;-71
2022/06/30 02:37:37;;;;;;;14.32;13.05;;;19.20;99.60;;;;;;5033469;28;20040;-70
2022/06/30 02:40:04;;;;;;;14.20;12.90;;;19.40;99.80;;;;;;5031373;28;20056;-70
2022/06/30 02:42:30;;;;;;;14.52;13.32;;;19.20;99.90;;;;;;5032924;28;20026;-70
2022/06/30 02:44:55;;;;;;;14.07;12.30;;;19.20;99.90;;;;;;5032981;28;20485;-70
2022/06/30 02:47:21;;;;;;;13.85;12.45;;;19.10;99.90;;;;;;5032746;28;20435;-70
2022/06/30 02:49:47;;;;;;;14.63;13.25;;;18.90;99.90;;;;;;5031417;28;20040;-70
2022/06/30 02:52:12;;;;;;;13.90;12.63;;;19.00;99.90;;;;;;5032703;28;20080;-70
2022/06/30 02:54:38;;;;;;;13.18;11.98;;;19.00;99.90;;;;;;5032905;28;20391;-70
2022/06/30 02:57:04;;;;;;;13.25;11.95;;;18.90;99.90;;;;;;5031947;28;20087;-70
2022/06/30 02:59:29;;;;;;;13.98;12.57;;;18.90;99.90;;;;;;5033051;28;20108;-70
2022/06/30 03:01:55;;;;;;;12.48;11.38;;;18.80;99.90;;;;;;5032615;28;20482;-70
2022/06/30 03:04:21;;;;;;;13.57;12.35;;;18.80;99.90;;;;;;5032444;28;20014;-70
2022/06/30 03:06:47;;;;;;;12.80;11.52;;;18.70;99.90;;;;;;5032636;28;20097;-70
2022/06/30 03:09:13;;;;;;;14.00;12.60;;;18.70;99.90;;;;;;5032456;28;20113;-70
2022/06/30 03:11:39;;;;;;;14.35;12.85;;;18.60;99.90;;;;;;5032534;28;20128;-70
2022/06/30 03:14:05;;;;;;;15.05;12.38;;;18.70;99.90;;;;;;5032230;28;20025;-70
2022/06/30 03:16:30;;;;;;;14.40;13.13;;;18.70;99.90;;;;;;5032559;28;20437;-70
2022/06/30 03:18:56;;;;;;;17.10;13.25;;;21.30;99.90;;;;;;5032038;28;20424;-70
2022/06/30 03:21:22;;;;;;;15.23;13.90;;;18.50;99.90;;;;;;5032148;28;20087;-70
2022/06/30 03:23:47;;;;;;;15.85;14.25;;;18.50;99.90;;;;;;5032276;28;20017;-70
2022/06/30 03:26:13;;;;;;;18.27;16.58;;;18.60;99.90;;;;;;5031559;28;20033;-70
2022/06/30 03:28:39;;;;;;;18.85;17.25;;;18.60;99.90;;;;;;5032343;28;20079;-71
2022/06/30 03:31:05;;;;;;;18.08;16.35;;;18.60;99.90;;;;;;5031816;28;20494;-70
2022/06/30 03:33:30;;;;;;;18.63;17.02;;;18.80;99.90;;;;;;5032339;28;20109;-70
2022/06/30 03:35:57;;;;;;;18.67;16.85;;;18.60;99.90;;;;;;5031881;28;20029;-70
2022/06/30 03:38:22;;;;;;;20.58;18.58;;;21.10;99.90;;;;;;5031973;28;20037;-70
2022/06/30 03:40:48;;;;;;;17.75;15.93;;;18.70;99.90;;;;;;5031369;28;20045;-70
2022/06/30 03:43:13;;;;;;;18.88;17.17;;;18.70;99.90;;;;;;5031686;28;20180;-70
2022/06/30 03:45:39;;;;;;;19.67;17.63;;;18.70;99.90;;;;;;5031962;28;20044;-70
2022/06/30 03:48:06;;;;;;;18.00;16.40;;;18.80;99.90;;;;;;5031323;28;20022;-70
2022/06/30 03:50:33;;;;;;;19.42;17.63;;;18.70;99.90;;;;;;5032034;28;20036;-70
2022/06/30 03:52:59;;;;;;;17.80;16.00;;;18.80;99.90;;;;;;5031478;28;20026;-70
2022/06/30 03:55:26;;;;;;;17.83;16.23;;;18.70;99.90;;;;;;5030178;28;20020;-70
2022/06/30 03:57:51;;;;;;;18.33;16.73;;;19.90;99.90;;;;;;5031615;28;20103;-70
2022/06/30 04:00:17;;;;;;;18.67;17.08;;;18.60;99.90;;;;;;5031309;28;20073;-71
2022/06/30 04:02:43;;;;;;;18.95;17.23;;;18.70;99.90;;;;;;5031416;28;20013;-70
2022/06/30 04:05:09;;;;;;;17.58;15.88;;;18.70;99.90;;;;;;5031320;28;20036;-70
2022/06/30 04:07:45;;;;;;;17.00;15.40;;;18.70;99.90;;;;;;5031323;28;20053;-70
2022/06/30 04:10:13;;;;;;;19.25;17.55;;;18.70;99.90;;;;;;5030787;28;20026;-70
2022/06/30 04:12:39;;;;;;;17.65;15.82;;;18.60;99.90;;;;;;5031231;28;20108;-70
2022/06/30 04:15:05;;;;;;;18.33;16.63;;;18.70;99.90;;;;;;5031047;28;20021;-70
2022/06/30 04:17:34;;;;;;;21.52;19.30;;;18.50;99.90;;;;;;5031313;28;20485;-70
2022/06/30 04:20:17;;;;;;;21.73;19.88;;;18.70;99.90;;;;;;5031025;28;20026;-70
2022/06/30 04:22:44;;;;;;;23.80;21.30;;;18.80;99.90;;;;;;5031057;28;20017;-70
2022/06/30 04:25:10;;;;;;;23.17;21.08;;;18.70;99.90;;;;;;5026739;28;20045;-70
2022/06/30 04:27:36;;;;;;;23.15;20.95;;;18.80;99.90;;;;;;5026533;28;20802;-69
2022/06/30 04:30:02;;;;;;;22.20;19.70;;;18.80;99.90;;;;;;5027921;28;20108;-70
2022/06/30 04:32:39;;;;;;;21.55;19.55;;;18.80;99.90;;;;;;5030444;28;20045;-70
2022/06/30 04:35:06;;;;;;;20.45;18.58;;;18.90;99.90;;;;;;5028748;28;20028;-71
2022/06/30 04:37:32;;;;;;;20.77;18.75;;;18.90;99.90;;;;;;5029741;28;20059;-70
2022/06/30 04:42:42;;;;;;;21.77;19.67;;;18.90;99.90;;;;;;5024279;28;20067;-70
2022/06/30 04:45:08;;;;;;;22.17;20.20;;;19.00;99.90;;;;;;5029807;28;20056;-70
2022/06/30 04:47:38;;;;;;;22.23;20.13;;;18.90;99.90;;;;;;5030479;28;20036;-71
2022/06/30 04:50:05;;;;;;;20.55;18.70;;;19.10;99.90;;;;;;5030730;28;20009;-71
2022/06/30 04:52:30;;;;;;;23.70;21.55;;;19.10;99.90;;;;;;5030224;28;20498;-70
2022/06/30 04:54:56;;;;;;;23.15;20.95;;;19.10;99.90;;;;;;5029110;28;20018;-70
2022/06/30 04:57:21;;;;;;;22.88;20.73;;;19.30;99.90;;;;;;5030287;28;20470;-70
2022/06/30 04:59:47;;;;;;;25.25;22.92;;;19.20;99.90;;;;;;5030555;28;20144;-70
2022/06/30 05:02:13;;;;;;;24.30;21.92;;;19.40;99.90;;;;;;5030423;28;20513;-70
2022/06/30 05:04:38;;;;;;;21.88;19.77;;;19.40;99.90;;;;;;5024434;28;20418;-70
2022/06/30 05:07:04;;;;;;;22.55;20.40;;;19.50;99.90;;;;;;5029560;28;20056;-70
2022/06/30 05:09:30;;;;;;;21.65;19.42;;;19.50;99.90;;;;;;5030986;28;20159;-70
2022/06/30 05:11:55;;;;;;;23.58;21.15;;;20.80;99.90;;;;;;5029038;28;20022;-70
2022/06/30 05:14:21;;;;;;;23.80;21.38;;;19.50;99.90;;;;;;5029991;28;20026;-70
2022/06/30 05:16:47;;;;;;;23.38;21.17;;;19.70;99.90;;;;;;5030261;28;20022;-70
2022/06/30 05:19:12;;;;;;;24.08;21.98;;;20.20;99.90;;;;;;5030032;28;20096;-70
2022/06/30 05:21:38;;;;;;;23.30;21.15;;;19.90;99.90;;;;;;5027653;28;20053;-70
2022/06/30 05:26:47;;;;;;;24.83;22.50;;;20.00;99.90;;;;;;5029564;28;20028;-70
2022/06/30 05:29:13;;;;;;;23.77;21.40;;;20.10;99.90;;;;;;5029196;28;20030;-70
2022/06/30 05:31:39;;;;;;;23.42;21.25;;;20.30;99.90;;;;;;5024353;28;20402;-70
2022/06/30 05:34:05;;;;;;;28.38;25.70;;;20.20;99.90;;;;;;5028908;28;20032;-70
2022/06/30 05:36:30;;;;;;;26.17;23.70;;;20.30;99.90;;;;;;5024959;28;20025;-70
2022/06/30 05:38:56;;;;;;;26.50;24.10;;;20.30;99.90;;;;;;5028820;28;20025;-70
2022/06/30 05:41:21;;;;;;;25.80;23.33;;;20.30;99.90;;;;;;5028721;28;20041;-70
2022/06/30 05:43:47;;;;;;;26.02;23.52;;;20.50;99.90;;;;;;5029177;28;20053;-70
2022/06/30 05:46:12;;;;;;;24.95;22.42;;;20.40;99.90;;;;;;5029607;28;20108;-70
2022/06/30 05:48:38;;;;;;;26.20;23.92;;;20.40;99.90;;;;;;5029555;28;20029;-70
2022/06/30 05:51:04;;;;;;;24.10;21.75;;;21.80;99.90;;;;;;5028992;28;20026;-70
2022/06/30 05:53:29;;;;;;;23.75;21.65;;;20.70;99.90;;;;;;5029760;28;20491;-70
2022/06/30 05:55:55;;;;;;;23.77;21.63;;;20.70;99.90;;;;;;5029684;28;20029;-70
2022/06/30 05:58:20;;;;;;;25.70;23.25;;;20.70;99.90;;;;;;5029437;28;20028;-71
2022/06/30 06:00:46;;;;;;;25.85;23.38;;;20.90;99.90;;;;;;5029954;28;20041;-70
2022/06/30 06:03:11;;;;;;;25.17;22.70;;;20.90;99.90;;;;;;5030007;28;20033;-70
2022/06/30 06:05:37;;;;;;;24.45;22.00;;;20.90;99.90;;;;;;5028873;28;20116;-70
2022/06/30 06:08:10;;;;;;;27.65;25.02;;;20.90;99.90;;;;;;5029171;28;20049;-71
2022/06/30 06:10:36;;;;;;;;;;;21.00;99.90;;;;;;5029881;28;20029;-71
2022/06/30 06:13:03;;;;;;;23.38;21.05;;;22.20;99.90;;;;;;5029441;28;19916;-71
2022/06/30 06:15:31;;;;;;;23.95;21.55;;;21.10;99.90;;;;;;5029561;28;20025;-70
2022/06/30 06:17:57;;;;;;;25.33;23.02;;;21.20;99.90;;;;;;5029312;28;20025;-70
2022/06/30 06:20:22;;;;;;;23.00;20.80;;;22.90;99.90;;;;;;5028696;28;20491;-71
2022/06/30 06:22:48;;;;;;;24.65;22.45;;;21.30;99.90;;;;;;5029353;28;20048;-71
2022/06/30 06:25:15;;;;;;;25.83;23.33;;;21.40;99.90;;;;;;5029174;28;20025;-71
2022/06/30 06:27:41;;;;;;;24.38;21.95;;;21.60;99.90;;;;;;5029500;28;20026;-71
2022/06/30 06:30:09;;;;;;;21.83;19.73;;;21.50;99.90;;;;;;5029309;28;20022;-71
2022/06/30 06:32:35;;;;;;;23.15;20.95;;;21.40;99.90;;;;;;5029119;28;20113;-70
2022/06/30 06:35:01;;;;;;;22.92;20.73;;;22.80;99.90;;;;;;5028462;28;20033;-71
2022/06/30 06:37:26;;;;;;;24.15;21.70;;;23.30;99.90;;;;;;5029370;28;20061;-69
2022/06/30 06:39:52;;;;;;;23.38;21.08;;;21.80;99.90;;;;;;5029242;28;20178;-69
2022/06/30 06:42:17;;;;;;;22.98;20.60;;;22.90;99.90;;;;;;5028864;28;20045;-69
2022/06/30 06:44:43;;;;;;;21.63;18.45;;;21.80;99.90;;;;;;5029135;28;20044;-70
2022/06/30 06:47:09;;;;;;;19.02;17.25;;;21.90;99.90;;;;;;5028868;28;20061;-69
2022/06/30 06:49:34;;;;;;;19.75;17.73;;;21.90;99.90;;;;;;5028851;28;20027;-69
2022/06/30 06:52:00;;;;;;;19.95;18.05;;;21.90;99.60;;;;;;5031839;28;20025;-69
2022/06/30 06:54:25;;;;;;;19.40;17.63;;;22.00;99.30;;;;;;5032973;28;20022;-69
2022/06/30 06:56:51;;;;;;;23.00;18.88;;;22.10;99.20;;;;;;5032830;28;20378;-69
2022/06/30 06:59:16;;;;;;;24.50;19.20;;;22.00;99.10;;;;;;5032614;28;20036;-69
2022/06/30 07:01:42;;;;;;;20.95;19.05;;;22.20;99.00;;;;;;5032709;28;20123;-69
2022/06/30 07:04:08;;;;;;;22.17;20.08;;;22.20;98.90;;;;;;5032123;28;20040;-69
2022/06/30 07:06:34;;;;;;;23.45;21.38;;;22.20;98.70;;;;;;5032708;28;20025;-69
2022/06/30 07:09:01;;;;;;;24.17;21.80;;;22.10;98.50;;;;;;5031923;28;20042;-69
2022/06/30 07:11:26;;;;;;;24.27;21.77;;;22.20;98.70;;;;;;5031436;28;20033;-69
2022/06/30 07:13:52;;;;;;;23.75;21.45;;;22.40;98.50;;;;;;5032652;28;20104;-69
2022/06/30 07:16:18;;;;;;;23.92;21.60;;;22.40;98.50;;;;;;5032500;28;20040;-69
2022/06/30 07:18:46;;;;;;;25.85;23.35;;;22.40;98.40;;;;;;5032193;28;20067;-69
2022/06/30 07:21:12;;;;;;;23.92;21.70;;;22.50;97.70;;;;;;5018413;28;20040;-69
2022/06/30 07:23:37;;;;;;;23.50;21.50;;;22.50;98.30;;;;;;5032403;28;20022;-69
2022/06/30 07:26:03;;;;;;;23.80;21.50;;;22.60;98.30;;;;;;5031933;28;20021;-69
2022/06/30 07:28:29;;;;;;;26.52;23.80;;;22.60;98.20;;;;;;5032661;28;20063;-69
2022/06/30 07:30:54;;;;;;;26.90;24.05;;;22.80;98.10;;;;;;5031878;28;20037;-69
2022/06/30 07:33:20;;;;;;;26.63;24.25;;;22.90;98.10;;;;;;5031613;28;20018;-69
2022/06/30 07:35:46;;;;;;;29.15;26.58;;;23.70;98.20;;;;;;5032132;28;20025;-69
2022/06/30 07:38:12;;;;;;;25.70;23.50;;;22.80;98.00;;;;;;5031843;28;20032;-70
2022/06/30 07:40:38;;;;;;;26.38;24.13;;;23.00;97.90;;;;;;5031982;28;20136;-69
2022/06/30 07:43:03;;;;;;;25.15;23.15;;;22.70;97.70;;;;;;5031697;28;20021;-70
2022/06/30 07:45:29;;;;;;;27.95;25.55;;;23.20;97.70;;;;;;5031919;28;20044;-69
2022/06/30 07:47:55;;;;;;;23.98;21.83;;;23.20;97.60;;;;;;5031456;28;20021;-70
2022/06/30 07:50:21;;;;;;;27.95;25.42;;;23.20;97.40;;;;;;5031782;28;20030;-71
2022/06/30 07:52:47;;;;;;;27.02;24.60;;;23.30;97.40;;;;;;5031570;28;20609;-71
2022/06/30 07:55:13;;;;;;;27.80;25.27;;;24.30;97.50;;;;;;5031652;28;20104;-69
2022/06/30 07:57:42;;;;;;;30.35;27.63;;;23.30;97.20;;;;;;5031569;28;20025;-69
2022/06/30 08:00:09;;;;;;;28.45;26.00;;;23.30;97.30;;;;;;5029716;28;20386;-69
2022/06/30 08:02:34;;;;;;;28.67;26.25;;;23.50;97.00;;;;;;5029981;28;20033;-69
2022/06/30 08:05:00;;;;;;;31.77;29.08;;;23.50;97.00;;;;;;5031013;28;20026;-69
2022/06/30 08:07:26;;;;;;;30.65;27.75;;;23.40;97.00;;;;;;5031428;28;20053;-69
2022/06/30 08:09:51;;;;;;;29.15;26.73;;;23.40;97.10;;;;;;5031492;28;20486;-69
2022/06/30 08:12:17;;;;;;;29.70;27.00;;;24.00;97.30;;;;;;5031135;28;20037;-69
2022/06/30 08:14:42;;;;;;;24.50;22.33;;;23.50;97.10;;;;;;5031224;28;20398;-69
2022/06/30 08:17:08;;;;;;;28.38;25.77;;;23.60;97.10;;;;;;5030658;28;20028;-69
2022/06/30 08:19:35;;;;;;;21.90;19.73;;;23.60;97.00;;;;;;5031462;28;20846;-69
2022/06/30 08:22:01;;;;;;;23.10;20.95;;;23.60;96.10;;;;;;5031231;28;20087;-69
2022/06/30 08:24:27;;;;;;;23.77;21.45;;;24.90;97.00;;;;;;5029957;28;20029;-69
2022/06/30 08:26:53;;;;;;;22.42;20.23;;;23.70;96.70;;;;;;5031164;28;20034;-69
2022/06/30 08:29:18;;;;;;;23.85;21.02;;;23.60;96.50;;;;;;5031269;28;20039;-69
2022/06/30 08:31:44;;;;;;;25.45;22.98;;;23.60;96.40;;;;;;5030614;28;20039;-69
2022/06/30 08:34:09;;;;;;;24.35;22.00;;;23.70;96.30;;;;;;5030784;28;20026;-69
2022/06/30 08:36:35;;;;;;;24.55;22.02;;;23.80;96.40;;;;;;5030943;28;20029;-70
2022/06/30 08:39:01;;;;;;;22.38;20.05;;;23.60;96.40;;;;;;5030664;28;20533;-70
2022/06/30 08:44:17;;;;;;;19.10;16.98;;;24.40;96.80;;;;;;5030694;28;20088;-70
2022/06/30 08:46:43;;;;;;;14.77;13.30;;;23.60;96.60;;;;;;5030167;28;20104;-71
2022/06/30 08:49:08;;;;;;;14.27;12.85;;;23.70;96.10;;;;;;5030650;28;20116;-69
2022/06/30 08:51:36;;;;;;;14.32;12.73;;;23.60;95.70;;;;;;5030504;28;20442;-69
2022/06/30 08:54:03;;;;;;;11.77;9.23;;;23.60;95.80;;;;;;5030524;28;20025;-69
2022/06/30 08:56:30;;;;;;;10.40;9.32;;;23.50;95.60;;;;;;5030895;28;20051;-69
2022/06/30 08:58:56;;;;;;;9.73;8.45;;;23.80;95.50;;;;;;5030094;28;20032;-69
2022/06/30 09:01:22;;;;;;;12.85;8.77;;;23.70;95.40;;;;;;5030056;28;20418;-69
2022/06/30 09:03:48;;;;;;;9.27;7.32;;;24.10;95.30;;;;;;5030381;28;20025;-69
2022/06/30 09:06:15;;;;;;;9.90;7.43;;;23.70;95.20;;;;;;5030358;28;20026;-69
2022/06/30 09:08:40;;;;;;;7.80;7.00;;;23.90;95.10;;;;;;5030187;28;20483;-69
2022/06/30 09:11:06;;;;;;;8.77;7.40;;;24.00;94.80;;;;;;5030034;28;20021;-69
2022/06/30 09:13:49;;;;;;;12.27;8.73;;;24.00;94.70;;;;;;5029885;28;20026;-69
2022/06/30 09:16:17;;;;;;;11.98;8.65;;;24.20;95.10;;;;;;5030133;28;20048;-69
2022/06/30 09:18:44;;;;;;;10.73;7.82;;;25.40;94.90;;;;;;5030160;28;20032;-69
2022/06/30 09:21:17;;;;;;;8.85;7.95;;;24.20;94.60;;;;;;5029834;28;20048;-69
2022/06/30 09:23:46;;;;;;;;;;;25.30;95.10;;;;;;5030566;28;20100;-69
2022/06/30 09:26:19;;;;;;;9.35;5.60;;;24.20;94.20;;;;;;5029924;28;19904;-69
2022/06/30 09:28:55;;;;;;;8.45;5.15;;;24.00;94.50;;;;;;5029564;28;20044;-69
2022/06/30 09:31:32;;;;;;;7.43;5.20;;;24.30;94.30;;;;;;5029733;28;20541;-69
2022/06/30 09:34:28;;;;;;;9.25;4.45;;;24.40;94.30;;;;;;5029995;28;20049;-69
2022/06/30 09:36:54;;;;;;;6.70;4.25;;;24.50;93.20;;;;;;5029822;28;20026;-69
2022/06/30 09:39:22;;;;;;;6.43;4.63;;;24.50;93.40;;;;;;5029835;28;20463;-69
2022/06/30 09:41:49;;;;;;;7.80;4.15;;;25.40;93.40;;;;;;5029959;28;20033;-69
2022/06/30 09:44:24;;;;;;;7.75;5.60;;;24.60;93.00;;;;;;5028426;28;20524;-68
2022/06/30 09:47:08;;;;;;;7.88;4.43;;;24.70;93.40;;;;;;5029828;28;20112;-69
2022/06/30 09:49:45;;;;;;;5.32;3.70;;;24.70;92.10;;;;;;5029960;28;20383;-69
2022/06/30 09:52:26;;;;;;;6.53;4.18;;;24.70;92.90;;;;;;5029751;28;20026;-69
2022/06/30 09:54:58;;;;;;;4.05;3.35;;;24.80;93.00;;;;;;5029410;28;20026;-69
2022/06/30 09:57:31;;;;;;;5.15;3.17;;;24.70;91.80;;;;;;5029141;28;20053;-69
2022/06/30 10:00:14;;;;;;;6.32;4.15;;;25.00;91.60;;;;;;5029659;28;20032;-69
2022/06/30 10:02:45;;;;;;;6.32;3.65;;;25.10;91.50;;;;;;5029770;28;20063;-71
2022/06/30 10:05:12;;;;;;;9.70;3.30;;;25.30;92.00;;;;;;5029307;28;20029;-69
2022/06/30 10:07:38;;;;;;;4.95;3.33;;;26.40;92.10;;;;;;5029640;28;20056;-69
2022/06/30 10:10:08;;;;;;;6.68;3.70;;;25.20;91.60;;;;;;5029513;28;20028;-69
2022/06/30 10:12:35;;;;;;;7.65;4.55;;;25.20;91.70;;;;;;5029017;28;20026;-69
2022/06/30 10:15:00;;;;;;;6.65;3.83;;;25.30;91.70;;;;;;5029440;28;20490;-69
2022/06/30 10:17:36;;;;;;;11.45;6.03;;;26.00;91.90;;;;;;5028167;28;20098;-69
2022/06/30 10:20:04;;;;;;;8.10;5.40;;;25.40;91.80;;;;;;5029507;28;20080;-69
2022/06/30 10:22:29;;;;;;;6.32;5.13;;;25.40;91.40;;;;;;5029446;28;20029;-69
2022/06/30 10:24:57;;;;;;;8.75;6.43;;;25.30;91.50;;;;;;5029378;28;20151;-69
2022/06/30 10:27:24;;;;;;;5.57;5.07;;;25.40;91.70;;;;;;5032509;28;20531;-69
2022/06/30 10:30:05;;;;;;;6.03;4.97;;;25.40;91.60;;;;;;5033226;28;20129;-69
2022/06/30 10:32:41;;;;;;;6.07;4.72;;;25.50;91.00;;;;;;5033397;28;20138;-69
2022/06/30 10:35:15;;;;;;;6.63;4.43;;;25.50;91.50;;;;;;5033310;28;20032;-69
2022/06/30 10:37:52;;;;;;;7.72;5.22;;;25.60;91.00;;;;;;5032989;28;20029;-69
2022/06/30 10:40:36;;;;;;;9.00;4.93;;;25.70;91.80;;;;;;5032946;28;20156;-70
2022/06/30 10:43:02;;;;;;;7.75;5.28;;;25.70;91.70;;;;;;5032801;28;20034;-69
2022/06/30 10:45:31;;;;;;;10.90;6.72;;;25.70;91.50;;;;;;5033451;28;20088;-69
2022/06/30 10:48:08;;;;;;;7.75;5.63;;;25.70;91.60;;;;;;5032777;28;20025;-69
2022/06/30 10:50:39;;;;;;;5.75;4.78;;;25.70;90.80;;;;;;5033036;28;20474;-69
2022/06/30 10:53:07;;;;;;;7.60;5.57;;;25.70;91.80;;;;;;5032468;28;20395;-68
2022/06/30 10:55:50;;;;;;;9.50;6.22;;;26.80;91.90;;;;;;5032655;28;20079;-70
2022/06/30 10:58:17;;;;;;;8.95;5.53;;;25.90;90.80;;;;;;5032517;28;20493;-69
2022/06/30 11:00:50;;;;;;;7.43;5.63;;;25.50;91.10;;;;;;5031537;28;20036;-69
2022/06/30 11:03:37;;;;;;;7.35;4.50;;;25.50;91.40;;;;;;5031235;28;20375;-69
2022/06/30 11:06:09;;;;;;;8.70;4.63;;;25.60;90.70;;;;;;5020240;28;20021;-70
2022/06/30 11:11:34;;;;;;;7.57;5.63;;;25.50;91.30;;;;;;5031857;28;20018;-69
2022/06/30 11:14:03;;;;;;;8.18;4.65;;;25.70;91.40;;;;;;5031788;28;20056;-69
2022/06/30 11:16:30;;;;;;;8.63;4.93;;;25.60;91.20;;;;;;5032641;28;20435;-68
2022/06/30 11:18:56;;;;;;;5.50;4.10;;;25.70;91.00;;;;;;5032267;28;20025;-69
2022/06/30 11:21:22;;;;;;;6.38;4.47;;;26.20;91.00;;;;;;5032427;28;20390;-69
2022/06/30 11:23:49;;;;;;;5.30;3.95;;;25.90;90.80;;;;;;5032248;28;20068;-68
2022/06/30 11:29:02;;;;;;;6.13;5.05;;;26.00;90.60;;;;;;5032197;28;20036;-68
2022/06/30 11:31:33;;;;;;;8.85;4.38;;;26.00;90.50;;;;;;5032441;28;20049;-69
2022/06/30 11:34:08;;;;;;;7.60;3.63;;;25.90;89.50;;;;;;5032060;28;20025;-69
2022/06/30 11:36:35;;;;;;;5.55;3.35;;;25.90;90.70;;;;;;5032248;28;20033;-69
2022/06/30 11:39:08;;;;;;;5.22;3.30;;;26.10;90.40;;;;;;5031553;28;20368;-69
2022/06/30 11:44:41;;;;;;;9.60;5.55;;;26.30;90.30;;;;;;5031936;28;20036;-69
2022/06/30 11:47:10;;;;;;;7.20;4.65;;;27.70;90.60;;;;;;5031762;28;20056;-69
2022/06/30 11:49:48;;;;;;;8.18;3.50;;;26.70;89.60;;;;;;5031815;28;20488;-69
2022/06/30 11:52:22;;;;;;;6.45;3.33;;;26.70;88.40;;;;;;5031775;28;20100;-69
2022/06/30 11:54:53;;;;;;;7.95;4.00;;;25.40;87.10;;;;;;5031270;28;20067;-69
2022/06/30 11:57:27;;;;;;;5.32;3.60;;;26.60;87.20;;;;;;5031758;28;20036;-69
2022/06/30 12:00:07;;;;;;;5.22;3.33;;;26.60;86.90;;;;;;5031636;28;20021;-69
2022/06/30 12:02:33;;;;;;;7.15;3.20;;;26.60;88.70;;;;;;5031924;28;20073;-69
2022/06/30 12:05:02;;;;;;;6.82;2.97;;;24.80;87.20;;;;;;5031927;28;20027;-69
2022/06/30 12:07:29;;;;;;;5.53;3.60;;;26.80;88.10;;;;;;5031462;28;20051;-69
2022/06/30 12:09:55;;;;;;;6.18;2.63;;;27.00;87.80;;;;;;5031608;28;20029;-69
2022/06/30 12:12:27;;;;;;;5.30;2.10;;;27.30;88.00;;;;;;5030909;28;20075;-69
2022/06/30 12:14:54;;;;;;;7.78;3.17;;;28.30;88.20;;;;;;5031691;28;20086;-69
2022/06/30 12:17:21;;;;;;;3.75;2.78;;;27.20;86.50;;;;;;5030046;28;20029;-69
2022/06/30 12:19:47;;;;;;;5.32;3.10;;;28.00;86.50;;;;;;5031627;28;20363;-69
2022/06/30 12:22:13;;;;;;;6.97;2.92;;;27.10;85.80;;;;;;5029273;28;20037;-69
2022/06/30 12:24:40;;;;;;;5.18;2.78;;;27.10;85.70;;;;;;5030642;28;20052;-69
2022/06/30 12:27:07;;;;;;;7.18;3.78;;;28.20;86.90;;;;;;5030367;28;20073;-68
2022/06/30 12:29:33;;;;;;;5.75;3.42;;;27.20;85.90;;;;;;5029345;28;20025;-69
2022/06/30 12:32:10;;;;;;;5.30;2.58;;;29.10;86.90;;;;;;5029957;28;20074;-69
2022/06/30 12:34:50;;;;;;;3.95;3.10;;;27.40;84.30;;;;;;5030898;28;20027;-69
2022/06/30 12:37:16;;;;;;;5.68;3.15;;;27.70;85.30;;;;;;5024725;28;20025;-69
2022/06/30 12:39:46;;;;;;;3.95;2.28;;;27.60;83.60;;;;;;5030309;28;20030;-69
2022/06/30 12:42:12;;;;;;;3.83;2.15;;;27.50;83.90;;;;;;5024801;28;20040;-69
2022/06/30 12:44:40;;;;;;;3.28;2.55;;;27.30;82.80;;;;;;5028034;28;20393;-69
2022/06/30 12:47:11;;;;;;;7.00;2.42;;;27.20;81.80;;;;;;5030180;28;20033;-69
2022/06/30 12:49:39;;;;;;;2.83;1.65;;;27.40;80.30;;;;;;5028934;28;20029;-69
2022/06/30 12:52:16;;;;;;;5.38;2.03;;;27.40;82.30;;;;;;5029758;28;20116;-70
2022/06/30 12:54:55;;;;;;;5.35;2.15;;;27.50;80.10;;;;;;5030419;28;20041;-70
2022/06/30 12:57:21;;;;;;;2.10;1.20;;;27.50;79.30;;;;;;5030547;28;20028;-70